首页
METAR-TAF:

METAR-TAF

机场 :

薩馬拉, 俄罗斯

纬度: 53-12N, 经度: 050-09E, 海拔: 44米

当前天气观测

该预报发布于38分钟前的03:30 UTC
静风
温度 -5°C
湿度 93%
气压 1022 hPa
能见度10公里或以上
1500米以下无云,无积雨云

METAR: UWWW 210330Z 00000MPS CAVOK M05/M06 Q1022 R33/CLRD59 NOSIG RMK QFE756/1008

时间: 08:08 (04:08 UTC)

预报

该预报发布于2小时和13分钟前的01:55 UTC
预报有效从21日的 03点(UTC)到 22日的 03点(UTC)
风速6节,风向西,有时为16节阵风
能見度: 3100
多云层高于1100英尺
轻雾
短暂存在
从 21日的 03点(UTC)到 21日的 07点(UTC)
风速2节,风向多变
能見度: 0300
层高于200英尺
冻雾
从 21日的 0700点(UTC)
风速2节,风向多变
能见度10公里或以上
散云层高于2000英尺
短暂存在
从 21日的 16点(UTC)到 22日的 03点(UTC)
能見度: 0300
层高于200英尺
冻雾

TAF: UWWW 210155Z 2103/2203 27003G08MPS 3100 BR BKN011 TX02/2111Z TNM07/2203Z TEMPO 2103/2107 VRB01MPS 0300 FZFG VV002 FM210700 VRB01MPS 9999 SCT020 TEMPO 2116/2203 0300 FZFG VV002

超过4000个机场的气象观测和天气预报(METAR&TAF报告)。

可查询的气象台以黄色和红色小点在地图上表示。

将鼠标移到小点上方,可查看气象台名称。

然后点击查看天气观测和预报。

如需切换地图:点击带黑十字的绿色按钮放大地图;点击带横线的绿色按钮缩小地图;或者点击绿色箭头查看邻近地区的地图。


METAR-TAF: